TDCF/DCF METAR and TAF weather

Enter ICAO airport designator
Station Type Date Time Source
TDCF METAR 2019/07/17 19:00 UTC NOAA

TDCF 171900Z 14006KT 9999 FEW020 31/20 Q1015


Station Type Date Time Source
TDCF Decoded METAR 2019/07/17 19:00 UTC NOAA

Canefield Airport, Dominica (TDCF) 15-32N 061-24W 5M
Jul 17, 2019 - 03:00 PM EDT / 2019.07.17 1900 UTC
Wind: from the SE (140 degrees) at 7 MPH (6 KT):0
Visibility: greater than 7 mile(s):0
Sky conditions: mostly clear
Temperature: 87 F (31 C)
Dew Point: 68 F (20 C)
Relative Humidity: 52%
Pressure (altimeter): 29.97 in. Hg (1015 hPa)
ob: TDCF 171900Z 14006KT 9999 FEW020 31/20 Q1015
cycle: 19

Station Type Date Time Source
TDCF TAF 2012/05/01 18:15 UTC NOAA

TAF TDCF 011600Z 0118/0218 110010KT 9999 SCT018 BKN030
TEMPO 0118/0206 6000 SHRA BKN014 BKN070

Example: see airport list